METAR Data
IDs: Format: Raw Decoded Include TAF

Data at: 1526 UTC 24 Aug 2019

PAII 241456Z AUTO 08004KT 1/4SM -RA FG OVC002 04/03 A2978 RMK AO2 RAB26 SLP083 P0000 60000 T00390033 53008 TSNO
PAII 241451Z AUTO 09004KT 1/2SM -RA FG OVC002 04/03 A2978 RMK AO2 RAB26 P0000 TSNO
PAII 241438Z AUTO 08004KT 1SM -RA BR OVC002 04/03 A2978 RMK AO2 RAB26 P0000 TSNO
PAII 241421Z AUTO 07004KT 1/2SM FG BKN002 04/03 A2977 RMK AO2 TSNO
PAII 241412Z AUTO 06005KT 3/4SM BR VV003 06/04 A2977 RMK AO2 VIS 1/2V5 TSNO
PAII 241409Z AUTO VRB04KT 1 1/2SM BR FEW003 07/06 A2977 RMK AO2 VIS 1/2V5 TSNO
PAII 241356Z AUTO 17005KT 10SM CLR 08/08 A2977 RMK AO2 SLP077 T00830078 TSNO
PAII 241256Z AUTO 17005KT 10SM CLR 08/08 A2977 RMK AO2 SLP077 T00830078 TSNO
PAII 241156Z AUTO 18005KT 10SM CLR 08/08 A2976 RMK AO2 SLP075 T00830078 10128 20083 52003 TSNO
PAII 241056Z AUTO 19004KT 10SM CLR 08/08 A2976 RMK AO2 SLP075 T00830078 TSNO
PAII 240956Z AUTO 19004KT 10SM CLR 08/08 A2975 RMK AO2 SLP072 T00830078 TSNO
PAII 240856Z AUTO 20005KT 10SM CLR 09/08 A2975 RMK AO2 SLP072 T00890078 401720089 53003 TSNO
PAII 240756Z AUTO 20004KT 10SM CLR 09/08 A2975 RMK AO2 SLP071 T00890083 TSNO
PAII 240656Z AUTO 20004KT 10SM SCT017 10/09 A2974 RMK AO2 SLP069 T01000089 TSNO
PAII 240654Z AUTO 20004KT 10SM SCT017 10/09 A2974 RMK AO2 TSNO
PAII 240632Z AUTO 22003KT 10SM BKN017 11/09 A2974 RMK AO2 TSNO
PAII 240556Z AUTO 24005KT 10SM SCT017 13/10 A2973 RMK AO2 SLP066 T01280100 10172 20128 53005 TSNO
PAII 240546Z AUTO 25007KT 10SM SCT017 13/11 A2973 RMK AO2 TSNO
PAII 240516Z AUTO 26008KT 10SM BKN017 14/11 A2972 RMK AO2 TSNO
PAII 240456Z AUTO 26008KT 10SM SCT017 14/11 A2972 RMK AO2 SLP063 T01390106 TSNO
PAII 240356Z AUTO 26008KT 10SM BKN019 14/11 A2972 RMK AO2 SLP060 T01440111 TSNO
PAII 240256Z AUTO 27009KT 10SM SCT019 BKN026 16/11 A2972 RMK AO2 SLP061 T01560111 55002 TSNO
PAII 240234Z AUTO 26009KT 10SM SCT019 BKN026 BKN031 16/11 A2972 RMK AO2 TSNO
PAII 240156Z AUTO 26010KT 10SM FEW019 SCT032 17/11 A2972 RMK AO2 SLP060 T01670111 TSNO
PAII 240129Z AUTO 26008G15KT 10SM SCT021 BKN027 17/11 A2972 RMK AO2 TSNO
PAII 240056Z AUTO 26011KT 10SM FEW021 17/11 A2972 RMK AO2 SLP063 T01670106 TSNO
PAII 240003Z AUTO 26011KT 10SM SCT018 SCT023 BKN032 17/11 A2973 RMK AO2 TSNO
PAII 232356Z AUTO 25010G14KT 10SM SCT018 BKN023 BKN032 17/11 A2973 RMK AO2 SLP064 T01670111 10172 20139 55000 TSNO
PAII 232342Z AUTO 26010G16KT 10SM BKN018 BKN026 BKN033 17/11 A2973 RMK AO2 TSNO
PAII 232307Z AUTO 27011KT 10SM FEW022 SCT028 17/11 A2972 RMK AO2 TSNO
PAII 232256Z AUTO 26010KT 10SM SCT019 BKN028 17/11 A2972 RMK AO2 SLP062 T01670106 TSNO
PAII 232218Z AUTO 27010G14KT 10SM BKN019 BKN036 16/11 A2973 RMK AO2 TSNO
PAII 232156Z AUTO 27010KT 10SM FEW019 BKN034 17/12 A2973 RMK AO2 SLP063 T01670117 TSNO
PAII 232056Z AUTO 26009KT 10SM FEW021 17/11 A2973 RMK AO2 SLP064 T01670106 53005 TSNO
PAII 232030Z AUTO 26009KT 10SM FEW017 SCT030 16/11 A2973 RMK AO2 TSNO
PAII 231956Z AUTO 27008KT 10SM BKN019 16/11 A2972 RMK AO2 SLP062 T01610111 TSNO
PAII 231946Z AUTO 26008KT 10SM BKN019 16/11 A2972 RMK AO2 TSNO
PAII 231916Z AUTO 27008KT 10SM SCT017 16/11 A2971 RMK AO2 TSNO
PAII 231856Z AUTO 27008KT 10SM BKN017 15/11 A2971 RMK AO2 SLP059 T01500111 TSNO
PAII 231827Z AUTO 27007KT 10SM BKN015 15/12 A2971 RMK AO2 TSNO
PAII 231756Z AUTO 26008KT 10SM SCT015 14/11 A2971 RMK AO2 SLP059 T01390111 10139 20094 53003 TSNO
PAII 231656Z AUTO 26009KT 10SM CLR 13/12 A2971 RMK AO2 SLP057 T01330117 TSNO
PAII 231556Z AUTO 27007KT 10SM CLR 13/11 A2971 RMK AO2 SLP057 T01280111 TSNO
PAII 231538Z AUTO 27007KT 10SM FEW013 13/11 A2971 RMK AO2 TSNO
PAII 231456Z AUTO 25005KT 10SM BKN013 12/11 A2970 RMK AO2 SLP056 T01170111 53003 TSNO
PAII 231420Z AUTO 22004KT 3SM BR BKN011 11/10 A2970 RMK AO2 TSNO
PAII 231416Z AUTO 21004KT 1 3/4SM BR FEW002 BKN011 11/10 A2970 RMK AO2 TSNO
PAII 231406Z AUTO 21004KT 1SM BR FEW002 OVC011 10/10 A2970 RMK AO2 TSNO
PAII 231356Z AUTO 21004KT 1/2SM FG SCT004 OVC011 10/09 A2970 RMK AO2 SLP056 T01000094 TSNO
PAII 231335Z AUTO 21003KT 1/4SM FG OVC004 10/09 A2970 RMK AO2 TSNO
PAII 231314Z AUTO 22004KT 1/2SM FG BKN004 10/09 A2970 RMK AO2 TSNO
PAII 231308Z AUTO 22004KT 1SM BR VV004 10/10 A2970 RMK AO2 TSNO
PAII 231303Z AUTO 21004KT 1 3/4SM BR CLR 10/10 A2970 RMK AO2 TSNO
PAII 231256Z AUTO 21005KT 3SM BR CLR 10/09 A2970 RMK AO2 SLP053 T01000094 TSNO
PAII 231156Z AUTO 21005KT 7SM CLR 10/09 A2970 RMK AO2 SLP053 T01000094 10144 20100 58000 TSNO
PAII 231056Z AUTO 21005KT 8SM CLR 11/10 A2970 RMK AO2 SLP055 T01060100 TSNO
PAII 230956Z AUTO 20004KT 8SM CLR 11/09 A2970 RMK AO2 SLP054 T01060094 TSNO
PAII 230856Z AUTO 21004KT 8SM CLR 11/10 A2970 RMK AO2 SLP054 T01060100 401780100 51005 TSNO
PAII 230756Z AUTO 00000KT 10SM CLR 13/12 A2969 RMK AO2 SLP052 T01330117 TSNO
PAII 230656Z AUTO 28005KT 10SM OVC095 14/12 A2969 RMK AO2 SLP051 T01440122 TSNO
PAII 230556Z AUTO 32003KT 10SM BKN060 OVC085 14/11 A2968 RMK AO2 SLP049 T01440111 10178 20144 51007 TSNO
PAII 230456Z AUTO 31006KT 10SM OVC090 15/11 A2968 RMK AO2 SLP047 T01500111 TSNO
PAII 230356Z AUTO 31006KT 10SM OVC085 16/11 A2967 RMK AO2 SLP045 T01560111 TSNO